Rio Blanco — D5BO9 — position and weather

sailwx.info

Track history (hours):
 
Tides and Currents Weather Stations Pressure Air Temp Water Temp Dewpoint Dewpoint Depression Visibility Wind Speed Wind Dir Waves Ship Positions

Rio Blanco

Last reported at 2017-Jan-17 09:00 UTC. Time now 2017-Jan-17 21:24 UTC.
Position N 36°42' E 000°06'.

Length 286 m; draft 9.8 m.

Type: Ship (hazmat cat A). MMSI: 636092395.

Wind from 320 at 30 knots

Barometer 1013.1 mb
Air temperature 14.7 ° C
Visibility: greater than 10.8 NM
Dewpoint 6.0 ° C
Water temperature 15.0 ° C

Date/timePositionNaut miles runAvg speedWind from/ knotsBaromVisibWave heightAir tempDewpointWater temp
2017-Jan-17 09:00N 36°42' E 000°06'3611.9 320 / 301013.110.8 14.7 6.015.0
2017-Jan-17 06:00N 36°30' W 000°36'5418.2 350 / 221014.210.8 15.2 6.715.0
2017-Jan-17 03:00N 36°18' W 001°42'9816.3 270 / 141016.610.8 15.110.515.0
2017-Jan-16 21:00N 36°06' W 003°42'7617.2 290 / 231019.610.8 14.9 7.716.0
2017-Jan-16 16:33N 36°03' W 005°17'133 6.8
2017-Jan-15 21:00N 36°18' W 008°00'11314.9 360 / 211027.510.8 14.3 1.914.0
2017-Jan-15 13:26N 37°32' W 009°47'1516.7
2017-Jan-15 12:32N 37°47' W 009°51'1616.9
2017-Jan-15 11:33N 38°03' W 009°55'1717.1
2017-Jan-15 10:33N 38°19' W 009°59'1716.9
2017-Jan-15 09:33N 38°36' W 010°04'611.0
2017-Jan-15 09:00N 38°42' W 010°06'1124.7 070 / 141032.210.8 13.3 2.216.0
2017-Jan-15 08:33N 38°53' W 010°06'1717.3
2017-Jan-15 07:33N 39°10' W 010°05'1716.9
2017-Jan-15 06:33N 39°27' W 010°05'1017.3
2017-Jan-15 06:00N 39°36' W 010°00'15617.3 040 / 151031.810.8 15.1 4.716.0
2017-Jan-14 21:00N 42°12' W 010°06'4816.0 050 / 181034.210.8 11.7 4.914.0
2017-Jan-14 18:00N 43°00' W 010°06'15317.0 340 / 131034.010.8 13.4 5.515.0
2017-Jan-14 09:00N 45°12' W 008°18'9816.3 360 / 161032.510.8 12.2 3.913.0
2017-Jan-14 03:00N 46°36' W 007°06'21714.0 340 / 191029.110.8 9.7 2.513.0
2017-Jan-13 11:27N 49°49' W 004°35'1414.1
2017-Jan-13 10:27N 49°53' W 004°14'1213.2
2017-Jan-13 09:34N 49°54' W 003°56'1323.0
2017-Jan-13 09:00N 49°54' W 003°36'4610.2 320 / 341015.410.8 7.7-1.311.0
2017-Jan-13 04:32N 50°03' W 002°26'1414.6
2017-Jan-13 03:33N 50°06' W 002°05'1716.5
2017-Jan-13 02:33N 50°11' W 001°40'1616.5
2017-Jan-13 01:33N 50°16' W 001°16'1515.4
2017-Jan-13 00:33N 50°20' W 000°53'2612.8
2017-Jan-12 22:32N 50°27' W 000°13'1111.0
2017-Jan-12 21:33N 50°30' E 000°03'1010.3
2017-Jan-12 20:33N 50°33' E 000°18'1110.7
2017-Jan-12 19:33N 50°36' E 000°35'1413.8
2017-Jan-12 18:33N 50°44' E 000°52'1514.9
2017-Jan-12 17:33N 50°52' E 001°12'1414.1
2017-Jan-12 16:34N 51°02' E 001°28'1312.9
2017-Jan-12 15:33N 51°11' E 001°42'1312.6
2017-Jan-12 14:34N 51°22' E 001°53'1211.7
2017-Jan-12 13:33N 51°31' E 002°04'1211.6
2017-Jan-12 12:33N 51°40' E 002°16'8513.2
2017-Jan-12 06:06N 52°46' E 003°43'611.8
2017-Jan-12 05:33N 52°51' E 003°51'1111.2
2017-Jan-12 04:32N 52°59' E 004°04'1010.5
2017-Jan-12 03:33N 53°05' E 004°18'1010.2
2017-Jan-12 02:33N 53°13' E 004°29'117 8.8
2017-Jan-11 13:08N 53°60' E 007°31'712.7
2017-Jan-11 12:33N 54°02' E 007°43'1212.4
2017-Jan-11 11:33N 54°01' E 008°04'1111.0
2017-Jan-11 10:33N 53°59' E 008°22'1211.8
2017-Jan-11 09:33N 53°55' E 008°41'1010.3
2017-Jan-11 08:33N 53°51' E 008°57'1110.6
2017-Jan-11 07:33N 53°53' E 009°15'1515.2
2017-Jan-11 06:33N 53°41' E 009°30'1212.0
2017-Jan-11 05:33N 53°34' E 009°47'6 5.6
2017-Jan-11 04:33N 53°32' E 009°56'0 0.0
2017-Jan-11 03:31N 53°32' E 009°56'0 0.0
2017-Jan-11 02:31N 53°32' E 009°56'0 0.0
2017-Jan-11 01:31N 53°32' E 009°56'0 0.0
2017-Jan-11 00:31N 53°32' E 009°56'0 0.0
2017-Jan-10 23:31N 53°32' E 009°56'0 0.0
2017-Jan-10 22:31N 53°32' E 009°56'0 0.0
2017-Jan-10 21:31N 53°32' E 009°56'0 0.0
2017-Jan-10 20:31N 53°32' E 009°56'0 0.0
2017-Jan-10 19:31N 53°32' E 009°56'0 0.0
2017-Jan-10 18:31N 53°32' E 009°56'0 0.0
2017-Jan-10 17:31N 53°32' E 009°56'0 0.0
2017-Jan-10 16:31N 53°32' E 009°56'0 0.0
2017-Jan-10 15:31N 53°32' E 009°56'0 0.0
2017-Jan-10 14:31N 53°32' E 009°56'0 0.0
2017-Jan-10 13:31N 53°32' E 009°56'0 0.0
2017-Jan-10 12:31N 53°32' E 009°56'0 0.0
2017-Jan-10 11:31N 53°32' E 009°56'0 0.0
2017-Jan-10 10:31N 53°32' E 009°56'0 0.0
2017-Jan-10 09:31N 53°32' E 009°56'0 0.0
2017-Jan-10 08:31N 53°32' E 009°56'0 0.0
2017-Jan-10 07:31N 53°32' E 009°56'0 0.0
2017-Jan-10 06:31N 53°32' E 009°56'0 0.0
2017-Jan-10 05:33N 53°32' E 009°55'1 1.4
2017-Jan-10 04:33N 53°32' E 009°54'8 8.0
2017-Jan-10 03:34N 53°34' E 009°40'1110.7
2017-Jan-10 02:33N 53°43' E 009°29'1212.5
2017-Jan-10 01:33N 53°52' E 009°16'1010.1
2017-Jan-10 00:33N 53°51' E 008°59'1211.6
2017-Jan-09 23:34N 53°55' E 008°40'1514.8
2017-Jan-09 22:34N 53°60' E 008°17'1313.2
2017-Jan-09 21:33N 53°58' E 007°54'11214.0
2017-Jan-09 13:33N 53°27' E 004°53'1514.0
2017-Jan-09 12:28N 53°16' E 004°35'1314.6
2017-Jan-09 11:33N 53°04' E 004°25'1414.3
2017-Jan-09 10:33N 52°51' E 004°14'1413.8
2017-Jan-09 09:33N 52°40' E 004°00'1313.1
2017-Jan-09 08:33N 52°31' E 003°45'1312.3
2017-Jan-09 07:30N 52°21' E 003°31'1311.9
2017-Jan-09 06:22N 52°08' E 003°26'1011.7
2017-Jan-09 05:33N 51°59' E 003°23'1312.7
2017-Jan-09 04:30N 51°46' E 003°15'1111.3
2017-Jan-09 03:33N 51°36' E 003°10'1211.9
2017-Jan-09 02:33N 51°25' E 003°03'1717.1
2017-Jan-09 01:33N 51°25' E 003°30'1110.9
2017-Jan-09 00:33N 51°21' E 003°47'1010.2
2017-Jan-08 23:34N 51°23' E 004°03'9 9.3
2017-Jan-08 22:34N 51°19' E 004°16'1 1.3
2017-Jan-08 21:33N 51°17' E 004°16'0 0.0
2017-Jan-08 20:31N 51°17' E 004°16'0 0.0
2017-Jan-08 19:31N 51°17' E 004°16'0 0.0
2017-Jan-08 18:31N 51°17' E 004°16'0 0.0
2017-Jan-08 17:31N 51°17' E 004°16'0 0.0
2017-Jan-08 16:31N 51°17' E 004°16'0 0.0
2017-Jan-08 15:31N 51°17' E 004°16'0 0.0
2017-Jan-08 14:31N 51°17' E 004°16'0 0.0
2017-Jan-08 13:31N 51°17' E 004°16'0 0.0
2017-Jan-08 12:31N 51°17' E 004°16'0 0.0
2017-Jan-08 11:31N 51°17' E 004°16'0 0.0
2017-Jan-08 10:25N 51°17' E 004°16'0 0.0
2017-Jan-08 09:31N 51°17' E 004°16'0 0.0
2017-Jan-08 08:31N 51°17' E 004°16'0 0.0
2017-Jan-08 07:31N 51°17' E 004°16'0 0.0
2017-Jan-08 06:31N 51°17' E 004°16'0 0.0
2017-Jan-08 05:31N 51°17' E 004°16'0 0.0
2017-Jan-08 04:28N 51°17' E 004°16'0 0.0
2017-Jan-08 03:31N 51°17' E 004°16'0 0.0
2017-Jan-08 02:31N 51°17' E 004°16'0 0.0
2017-Jan-08 01:31N 51°17' E 004°16'0 0.0
2017-Jan-08 00:31N 51°17' E 004°16'0 0.0
2017-Jan-07 23:31N 51°17' E 004°16'0 0.1
2017-Jan-07 22:33N 51°18' E 004°16'4 3.9
2017-Jan-07 21:33N 51°21' E 004°14'8 7.6
2017-Jan-07 20:33N 51°23' E 004°02'9 8.5
2017-Jan-07 19:33N 51°21' E 003°49'1110.7
2017-Jan-07 18:33N 51°25' E 003°34'1515.5
2017-Jan-07 17:33N 51°24' E 003°09'1514.8
2017-Jan-07 16:34N 51°24' E 002°45'8 8.1
2017-Jan-07 15:33N 51°22' E 002°32'7 6.9
2017-Jan-07 14:33N 51°20' E 002°22'7 7.4
2017-Jan-07 13:33N 51°18' E 002°10'8 7.7
2017-Jan-07 12:33N 51°22' E 001°60'10 9.8
2017-Jan-07 11:33N 51°31' E 001°52'10 9.9
2017-Jan-07 10:33N 51°40' E 001°46'9 9.2
2017-Jan-07 09:33N 51°49' E 001°44'  
Track history (hours):
 
Tides and Currents Weather Stations Pressure Air Temp Water Temp Dewpoint Dewpoint Depression Visibility Wind Speed Wind Dir Waves Ship Positions

Rio Blanco

Last reported at 2017-Jan-17 09:00 UTC. Time now 2017-Jan-17 21:24 UTC.
Position N 36°42' E 000°06'.

Length 286 m; draft 9.8 m.

Type: Ship (hazmat cat A). MMSI: 636092395.

Wind from 320 at 30 knots

Barometer 1013.1 mb
Air temperature 14.7 ° C
Visibility: greater than 10.8 NM
Dewpoint 6.0 ° C
Water temperature 15.0 ° C

Date/timePositionNaut miles runAvg speedWind from/ knotsBaromVisibWave heightAir tempDewpointWater temp
2017-Jan-17 09:00N 36°42' E 000°06'3611.9 320 / 301013.110.8 14.7 6.015.0
2017-Jan-17 06:00N 36°30' W 000°36'5418.2 350 / 221014.210.8 15.2 6.715.0
2017-Jan-17 03:00N 36°18' W 001°42'9816.3 270 / 141016.610.8 15.110.515.0
2017-Jan-16 21:00N 36°06' W 003°42'7617.2 290 / 231019.610.8 14.9 7.716.0
2017-Jan-16 16:33N 36°03' W 005°17'133 6.8
2017-Jan-15 21:00N 36°18' W 008°00'11314.9 360 / 211027.510.8 14.3 1.914.0
2017-Jan-15 13:26N 37°32' W 009°47'1516.7
2017-Jan-15 12:32N 37°47' W 009°51'1616.9
2017-Jan-15 11:33N 38°03' W 009°55'1717.1
2017-Jan-15 10:33N 38°19' W 009°59'1716.9
2017-Jan-15 09:33N 38°36' W 010°04'611.0
2017-Jan-15 09:00N 38°42' W 010°06'1124.7 070 / 141032.210.8 13.3 2.216.0
2017-Jan-15 08:33N 38°53' W 010°06'1717.3
2017-Jan-15 07:33N 39°10' W 010°05'1716.9
2017-Jan-15 06:33N 39°27' W 010°05'1017.3
2017-Jan-15 06:00N 39°36' W 010°00'15617.3 040 / 151031.810.8 15.1 4.716.0
2017-Jan-14 21:00N 42°12' W 010°06'4816.0 050 / 181034.210.8 11.7 4.914.0
2017-Jan-14 18:00N 43°00' W 010°06'15317.0 340 / 131034.010.8 13.4 5.515.0
2017-Jan-14 09:00N 45°12' W 008°18'9816.3 360 / 161032.510.8 12.2 3.913.0
2017-Jan-14 03:00N 46°36' W 007°06'21714.0 340 / 191029.110.8 9.7 2.513.0
2017-Jan-13 11:27N 49°49' W 004°35'1414.1
2017-Jan-13 10:27N 49°53' W 004°14'1213.2
2017-Jan-13 09:34N 49°54' W 003°56'1323.0
2017-Jan-13 09:00N 49°54' W 003°36'4610.2 320 / 341015.410.8 7.7-1.311.0
2017-Jan-13 04:32N 50°03' W 002°26'1414.6
2017-Jan-13 03:33N 50°06' W 002°05'1716.5
2017-Jan-13 02:33N 50°11' W 001°40'1616.5
2017-Jan-13 01:33N 50°16' W 001°16'1515.4
2017-Jan-13 00:33N 50°20' W 000°53'2612.8
2017-Jan-12 22:32N 50°27' W 000°13'1111.0
2017-Jan-12 21:33N 50°30' E 000°03'1010.3
2017-Jan-12 20:33N 50°33' E 000°18'1110.7
2017-Jan-12 19:33N 50°36' E 000°35'1413.8
2017-Jan-12 18:33N 50°44' E 000°52'1514.9
2017-Jan-12 17:33N 50°52' E 001°12'1414.1
2017-Jan-12 16:34N 51°02' E 001°28'1312.9
2017-Jan-12 15:33N 51°11' E 001°42'1312.6
2017-Jan-12 14:34N 51°22' E 001°53'1211.7
2017-Jan-12 13:33N 51°31' E 002°04'1211.6
2017-Jan-12 12:33N 51°40' E 002°16'8513.2
2017-Jan-12 06:06N 52°46' E 003°43'611.8
2017-Jan-12 05:33N 52°51' E 003°51'1111.2
2017-Jan-12 04:32N 52°59' E 004°04'1010.5
2017-Jan-12 03:33N 53°05' E 004°18'1010.2
2017-Jan-12 02:33N 53°13' E 004°29'117 8.8
2017-Jan-11 13:08N 53°60' E 007°31'712.7
2017-Jan-11 12:33N 54°02' E 007°43'1212.4
2017-Jan-11 11:33N 54°01' E 008°04'1111.0
2017-Jan-11 10:33N 53°59' E 008°22'1211.8
2017-Jan-11 09:33N 53°55' E 008°41'1010.3
2017-Jan-11 08:33N 53°51' E 008°57'1110.6
2017-Jan-11 07:33N 53°53' E 009°15'1515.2
2017-Jan-11 06:33N 53°41' E 009°30'1212.0
2017-Jan-11 05:33N 53°34' E 009°47'6 5.6
2017-Jan-11 04:33N 53°32' E 009°56'0 0.0
2017-Jan-11 03:31N 53°32' E 009°56'0 0.0
2017-Jan-11 02:31N 53°32' E 009°56'0 0.0
2017-Jan-11 01:31N 53°32' E 009°56'0 0.0
2017-Jan-11 00:31N 53°32' E 009°56'0 0.0
2017-Jan-10 23:31N 53°32' E 009°56'0 0.0
2017-Jan-10 22:31N 53°32' E 009°56'0 0.0
2017-Jan-10 21:31N 53°32' E 009°56'0 0.0
2017-Jan-10 20:31N 53°32' E 009°56'0 0.0
2017-Jan-10 19:31N 53°32' E 009°56'0 0.0
2017-Jan-10 18:31N 53°32' E 009°56'0 0.0
2017-Jan-10 17:31N 53°32' E 009°56'0 0.0
2017-Jan-10 16:31N 53°32' E 009°56'0 0.0
2017-Jan-10 15:31N 53°32' E 009°56'0 0.0
2017-Jan-10 14:31N 53°32' E 009°56'0 0.0
2017-Jan-10 13:31N 53°32' E 009°56'0 0.0
2017-Jan-10 12:31N 53°32' E 009°56'0 0.0
2017-Jan-10 11:31N 53°32' E 009°56'0 0.0
2017-Jan-10 10:31N 53°32' E 009°56'0 0.0
2017-Jan-10 09:31N 53°32' E 009°56'0 0.0
2017-Jan-10 08:31N 53°32' E 009°56'0 0.0
2017-Jan-10 07:31N 53°32' E 009°56'0 0.0
2017-Jan-10 06:31N 53°32' E 009°56'0 0.0
2017-Jan-10 05:33N 53°32' E 009°55'1 1.4
2017-Jan-10 04:33N 53°32' E 009°54'8 8.0
2017-Jan-10 03:34N 53°34' E 009°40'1110.7
2017-Jan-10 02:33N 53°43' E 009°29'1212.5
2017-Jan-10 01:33N 53°52' E 009°16'1010.1
2017-Jan-10 00:33N 53°51' E 008°59'1211.6
2017-Jan-09 23:34N 53°55' E 008°40'1514.8
2017-Jan-09 22:34N 53°60' E 008°17'1313.2
2017-Jan-09 21:33N 53°58' E 007°54'11214.0
2017-Jan-09 13:33N 53°27' E 004°53'1514.0
2017-Jan-09 12:28N 53°16' E 004°35'1314.6
2017-Jan-09 11:33N 53°04' E 004°25'1414.3
2017-Jan-09 10:33N 52°51' E 004°14'1413.8
2017-Jan-09 09:33N 52°40' E 004°00'1313.1
2017-Jan-09 08:33N 52°31' E 003°45'1312.3
2017-Jan-09 07:30N 52°21' E 003°31'1311.9
2017-Jan-09 06:22N 52°08' E 003°26'1011.7
2017-Jan-09 05:33N 51°59' E 003°23'1312.7
2017-Jan-09 04:30N 51°46' E 003°15'1111.3
2017-Jan-09 03:33N 51°36' E 003°10'1211.9
2017-Jan-09 02:33N 51°25' E 003°03'1717.1
2017-Jan-09 01:33N 51°25' E 003°30'1110.9
2017-Jan-09 00:33N 51°21' E 003°47'1010.2
2017-Jan-08 23:34N 51°23' E 004°03'9 9.3
2017-Jan-08 22:34N 51°19' E 004°16'1 1.3
2017-Jan-08 21:33N 51°17' E 004°16'0 0.0
2017-Jan-08 20:31N 51°17' E 004°16'0 0.0
2017-Jan-08 19:31N 51°17' E 004°16'0 0.0
2017-Jan-08 18:31N 51°17' E 004°16'0 0.0
2017-Jan-08 17:31N 51°17' E 004°16'0 0.0
2017-Jan-08 16:31N 51°17' E 004°16'0 0.0
2017-Jan-08 15:31N 51°17' E 004°16'0 0.0
2017-Jan-08 14:31N 51°17' E 004°16'0 0.0
2017-Jan-08 13:31N 51°17' E 004°16'0 0.0
2017-Jan-08 12:31N 51°17' E 004°16'0 0.0
2017-Jan-08 11:31N 51°17' E 004°16'0 0.0
2017-Jan-08 10:25N 51°17' E 004°16'0 0.0
2017-Jan-08 09:31N 51°17' E 004°16'0 0.0
2017-Jan-08 08:31N 51°17' E 004°16'0 0.0
2017-Jan-08 07:31N 51°17' E 004°16'0 0.0
2017-Jan-08 06:31N 51°17' E 004°16'0 0.0
2017-Jan-08 05:31N 51°17' E 004°16'0 0.0
2017-Jan-08 04:28N 51°17' E 004°16'0 0.0
2017-Jan-08 03:31N 51°17' E 004°16'0 0.0
2017-Jan-08 02:31N 51°17' E 004°16'0 0.0
2017-Jan-08 01:31N 51°17' E 004°16'0 0.0
2017-Jan-08 00:31N 51°17' E 004°16'0 0.0
2017-Jan-07 23:31N 51°17' E 004°16'0 0.1
2017-Jan-07 22:33N 51°18' E 004°16'4 3.9
2017-Jan-07 21:33N 51°21' E 004°14'8 7.6
2017-Jan-07 20:33N 51°23' E 004°02'9 8.5
2017-Jan-07 19:33N 51°21' E 003°49'1110.7
2017-Jan-07 18:33N 51°25' E 003°34'1515.5
2017-Jan-07 17:33N 51°24' E 003°09'1514.8
2017-Jan-07 16:34N 51°24' E 002°45'8 8.1
2017-Jan-07 15:33N 51°22' E 002°32'7 6.9
2017-Jan-07 14:33N 51°20' E 002°22'7 7.4
2017-Jan-07 13:33N 51°18' E 002°10'8 7.7
2017-Jan-07 12:33N 51°22' E 001°60'10 9.8
2017-Jan-07 11:33N 51°31' E 001°52'10 9.9
2017-Jan-07 10:33N 51°40' E 001°46'9 9.2
2017-Jan-07 09:33N 51°49' E 001°44'  

Dump ship's entire track history